In Rescue
 
Open Full Screen Window  High Contrast Mode
Wind Gusting 25 knots
17
March 01, 2024 4:16 PM CST
Weather Information
Wind Direction
  190 °
Wind Speed
  17 kt (20 mph)
Wind Gust
  25 kt (29 mph)
Altimeter
29.77 in
Visibility
10 SM
Temperature
14° C
57° F
Dewpoint
01° C
34° F
Humidity
41%
Sky Condition
Clear
VFR

METAR KLVN 012216Z AUTO 19017G25KT 10SM CLR 14/01 A2977 RMK AO2

FAA Disclaimer: The data displayed is for advisory purposes only and is not to be used for flight planning or operations.